N6AZ LIBP-LIMZ
Flight info
| Callsign | N6AZ |
|---|---|
| Flight time | N/A |
| Altitude | 22000 |
| Route | ASPIR DCT LAGEN |
| Aircraft | BE9L/L-SBDFGRY/SB1 |
Departure
| Time | 2026-05-01 12:40 |
|---|---|
| Airport | Abruzzo Airport (LIBP) |
Arrival
| Time | N/A |
|---|---|
| Airport | Cuneo International Airport (LIMZ) |
| Time | Latitude | Longitude | Altitude | Speed | Heading |
|---|---|---|---|---|---|
| 2026-05-01 12:32 | 42.43068 | 14.18597 | 39 ft | 0 kts | 127° |
| 2026-05-01 12:36 | 42.43069 | 14.18626 | 38 ft | 9 kts | 71° |
| 2026-05-01 12:37 | 42.43129 | 14.18710 | 39 ft | 14 kts | 36° |
| 2026-05-01 12:37 | 42.43186 | 14.18766 | 38 ft | 0 kts | 32° |
| 2026-05-01 12:37 | 42.43247 | 14.18792 | 37 ft | 19 kts | 353° |
| 2026-05-01 12:38 | 42.43401 | 14.18857 | 35 ft | 25 kts | 32° |
| 2026-05-01 12:38 | 42.43478 | 14.18933 | 35 ft | 24 kts | 40° |
| 2026-05-01 12:38 | 42.43498 | 14.18954 | 35 ft | 23 kts | 39° |
| 2026-05-01 12:38 | 42.43629 | 14.19086 | 32 ft | 23 kts | 38° |
| 2026-05-01 12:39 | 42.43757 | 14.19223 | 30 ft | 23 kts | 36° |
| 2026-05-01 12:39 | 42.43856 | 14.19274 | 31 ft | 9 kts | 329° |
| 2026-05-01 12:39 | 42.43886 | 14.19081 | 30 ft | 30 kts | 217° |
| 2026-05-01 12:39 | 42.43661 | 14.18853 | 35 ft | 65 kts | 214° |
| 2026-05-01 12:40 | 42.43136 | 14.18302 | 37 ft | 117 kts | 215° |
| 2026-05-01 12:40 | 42.42437 | 14.17663 | 250 ft | 121 kts | 209° |
| 2026-05-01 12:40 | 42.41705 | 14.17048 | 449 ft | 124 kts | 201° |
| 2026-05-01 12:40 | 42.41013 | 14.16363 | 649 ft | 126 kts | 224° |
| 2026-05-01 12:41 | 42.40482 | 14.15434 | 851 ft | 123 kts | 244° |
| 2026-05-01 12:41 | 42.39972 | 14.14517 | 1082 ft | 124 kts | 223° |
| 2026-05-01 12:41 | 42.39184 | 14.14120 | 1338 ft | 123 kts | 174° |
| 2026-05-01 12:41 | 42.38417 | 14.14467 | 1604 ft | 113 kts | 147° |
| 2026-05-01 12:42 | 42.37648 | 14.14491 | 1797 ft | 118 kts | 203° |
| 2026-05-01 12:42 | 42.37167 | 14.13741 | 2042 ft | 108 kts | 260° |
| 2026-05-01 12:42 | 42.37233 | 14.12781 | 2310 ft | 103 kts | 302° |
| 2026-05-01 12:42 | 42.37565 | 14.12004 | 2630 ft | 90 kts | 300° |
| 2026-05-01 12:43 | 42.37855 | 14.11168 | 2750 ft | 97 kts | 299° |